Time;durP1;ratioP1;P1;durP2;ratioP2;P2;SDS_P1;SDS_P2;PMS_P1;PMS_P2;Temp;Humidity;BMP_temperature;BMP_pressure;BME280_temperature;BME280_humidity;BME280_pressure;Samples;Min_cycle;Max_cycle;Signal;HPM_P1;HPM_P2
2023/07/28 00:01:53;;;;;;;7.43;2.97;;;;;;;16.98;59.48;99346.00;4225256;28;23295;-68
2023/07/28 00:04:19;;;;;;;7.50;2.90;;;;;;;17.23;58.65;99346.94;4236420;28;21752;-67
2023/07/28 00:06:46;;;;;;;6.00;3.17;;;;;;;17.23;58.62;99344.19;4230141;28;23907;-68
2023/07/28 00:09:12;;;;;;;6.90;3.40;;;;;;;17.14;59.22;99352.88;4235209;28;20235;-68
2023/07/28 00:11:39;;;;;;;8.23;3.03;;;;;;;17.04;59.69;99351.44;4225923;28;21136;-68
2023/07/28 00:14:05;;;;;;;8.17;3.30;;;;;;;17.05;59.06;99346.81;4229520;28;20248;-69
2023/07/28 00:16:32;;;;;;;7.53;3.10;;;;;;;17.21;58.50;99349.06;4234539;28;20286;-68
2023/07/28 00:18:59;;;;;;;8.40;2.97;;;;;;;17.18;58.65;99343.19;4235160;28;20246;-68
2023/07/28 00:21:26;;;;;;;5.63;3.20;;;;;;;17.18;58.92;99335.81;4222871;28;22072;-69
2023/07/28 00:23:53;;;;;;;5.57;2.90;;;;;;;17.21;58.47;99332.66;4231262;28;22311;-68
2023/07/28 00:26:20;;;;;;;6.13;3.20;;;;;;;17.28;58.39;99338.06;4222524;28;21408;-67
2023/07/28 00:28:46;;;;;;;4.57;3.00;;;;;;;17.33;58.13;99329.22;4234325;28;20317;-68
2023/07/28 00:31:13;;;;;;;6.20;3.53;;;;;;;17.37;58.23;99336.78;4238696;28;20684;-67
2023/07/28 00:33:39;;;;;;;7.40;3.40;;;;;;;17.30;58.42;99326.91;4225033;28;20231;-66
2023/07/28 00:36:06;;;;;;;7.37;2.67;;;;;;;17.26;58.68;99334.72;4241196;28;20324;-70
2023/07/28 00:38:33;;;;;;;7.47;3.37;;;;;;;17.11;59.15;99330.38;4227886;28;20275;-69
2023/07/28 00:40:59;;;;;;;8.00;3.27;;;;;;;17.32;58.54;99333.00;4225967;28;20281;-67
2023/07/28 00:43:26;;;;;;;6.00;3.33;;;;;;;17.20;59.37;99328.25;4227433;28;20231;-69
2023/07/28 00:45:53;;;;;;;7.83;3.20;;;;;;;17.22;59.19;99328.03;4233129;28;22096;-69
2023/07/28 00:48:20;;;;;;;8.20;3.17;;;;;;;17.18;59.67;99321.31;4224964;28;20374;-68
2023/07/28 00:50:48;;;;;;;5.80;3.23;;;;;;;17.22;59.44;99315.16;4226651;28;20459;-68
2023/07/28 00:53:15;;;;;;;5.83;2.60;;;;;;;17.16;59.91;99312.50;4224620;28;21555;-70
2023/07/28 00:55:42;;;;;;;5.40;3.23;;;;;;;17.16;59.78;99305.09;4215109;28;20240;-68
2023/07/28 00:58:09;;;;;;;5.63;3.20;;;;;;;17.15;60.14;99311.63;4239226;28;20255;-70
2023/07/28 01:00:36;;;;;;;6.27;3.27;;;;;;;17.19;59.98;99312.03;4261421;28;20282;-73
2023/07/28 01:03:02;;;;;;;6.10;2.90;;;;;;;17.11;60.37;99308.50;4242407;28;20230;-69
2023/07/28 01:05:35;;;;;;;5.20;3.13;;;;;;;17.11;60.36;99305.75;4250348;28;20226;-70
2023/07/28 01:08:06;;;;;;;7.33;3.10;;;;;;;17.06;60.68;99293.81;4238308;28;21079;-70
2023/07/28 01:10:33;;;;;;;10.93;3.20;;;;;;;16.99;61.00;99293.03;4233903;28;26487;-69
2023/07/28 01:13:00;;;;;;;7.07;3.00;;;;;;;16.96;61.25;99291.53;4219718;28;20301;-69
2023/07/28 01:15:27;;;;;;;7.80;3.13;;;;;;;16.88;61.59;99294.50;4235524;28;23086;-69
2023/07/28 01:17:54;;;;;;;6.33;3.17;;;;;;;16.92;61.30;99293.00;4220722;28;20251;-68
2023/07/28 01:20:23;;;;;;;6.77;2.90;;;;;;;16.86;61.55;99282.94;4231295;28;20228;-68
2023/07/28 01:23:24;;;;;;;6.43;2.90;;;;;;;16.82;61.86;99285.28;4227888;28;20425;-69
2023/07/28 01:26:05;;;;;;;4.80;2.83;;;;;;;16.79;61.82;99277.50;4233498;28;20402;-69
2023/07/28 01:28:34;;;;;;;4.87;2.97;;;;;;;16.67;62.61;99282.78;4253624;28;21019;-70
2023/07/28 01:31:05;;;;;;;5.20;3.27;;;;;;;16.71;62.50;99270.41;4238894;28;25397;-69
2023/07/28 01:33:32;;;;;;;6.60;3.20;;;;;;;16.73;62.14;99267.44;4226032;28;20861;-73
2023/07/28 01:36:00;;;;;;;6.73;3.30;;;;;;;16.61;62.84;99270.00;4226279;28;21265;-69
2023/07/28 01:38:28;;;;;;;5.57;3.27;;;;;;;16.66;63.21;99269.34;4228012;28;21420;-67
2023/07/28 01:40:54;;;;;;;6.37;2.73;;;;;;;16.62;63.42;99264.31;4245376;28;20236;-67
2023/07/28 01:43:21;;;;;;;5.47;3.27;;;;;;;16.55;63.66;99266.22;4249748;28;20297;-71
2023/07/28 01:45:48;;;;;;;7.57;3.50;;;;;;;16.55;64.04;99265.41;4236219;28;20249;-69
2023/07/28 01:48:14;;;;;;;8.83;2.83;;;;;;;16.70;63.38;99255.06;4230819;28;20506;-70
2023/07/28 01:50:41;;;;;;;4.67;3.10;;;;;;;16.54;64.25;99267.28;4236408;28;20238;-70
2023/07/28 01:53:07;;;;;;;7.50;3.00;;;;;;;16.52;64.22;99258.50;4220326;28;21956;-69
2023/07/28 01:55:34;;;;;;;5.77;3.27;;;;;;;16.51;64.31;99273.19;4232652;28;21331;-70
2023/07/28 01:58:02;;;;;;;7.37;3.40;;;;;;;16.48;64.54;99265.41;4246257;28;20243;-67
2023/07/28 02:00:29;;;;;;;6.83;3.63;;;;;;;16.49;64.87;99267.09;4235689;28;20249;-68
2023/07/28 02:02:57;;;;;;;6.80;3.40;;;;;;;16.41;65.27;99265.47;4221550;28;20368;-69
2023/07/28 02:05:25;;;;;;;6.17;3.30;;;;;;;16.38;64.91;99262.31;4224706;28;20325;-69
2023/07/28 02:07:52;;;;;;;7.60;3.43;;;;;;;16.41;65.25;99268.19;4246376;28;20308;-67
2023/07/28 02:10:18;;;;;;;8.47;3.40;;;;;;;16.45;65.10;99271.34;4230893;28;20681;-67
2023/07/28 02:12:45;;;;;;;8.17;3.53;;;;;;;16.41;65.14;99264.59;4216732;28;21746;-68
2023/07/28 02:15:13;;;;;;;7.20;3.67;;;;;;;16.40;65.42;99265.66;4227610;28;20313;-68
2023/07/28 02:17:39;;;;;;;7.07;3.40;;;;;;;16.31;65.71;99257.69;4236990;28;20253;-68
2023/07/28 02:20:10;;;;;;;6.17;3.40;;;;;;;16.32;65.80;99255.81;4227959;28;20387;-68
2023/07/28 02:22:37;;;;;;;7.70;3.50;;;;;;;16.28;65.92;99260.00;4235139;28;22791;-68
2023/07/28 02:25:03;;;;;;;6.17;3.60;;;;;;;16.31;65.93;99257.69;4231737;28;21586;-68
2023/07/28 02:27:30;;;;;;;5.33;3.20;;;;;;;16.38;65.56;99262.31;4234096;28;20555;-67
2023/07/28 02:29:56;;;;;;;8.67;3.67;;;;;;;16.42;65.51;99260.81;4228543;28;20238;-67
2023/07/28 02:32:24;;;;;;;5.93;3.17;;;;;;;16.30;66.16;99261.50;4232280;28;20281;-69
2023/07/28 02:34:51;;;;;;;5.70;3.07;;;;;;;16.37;65.97;99261.47;4235368;28;20264;-71
2023/07/28 02:37:17;;;;;;;8.70;3.43;;;;;;;16.32;66.34;99256.63;4235459;28;20310;-66
2023/07/28 02:39:44;;;;;;;5.73;3.53;;;;;;;16.28;66.84;99247.22;4221342;28;21206;-67
2023/07/28 02:42:11;;;;;;;6.97;3.90;;;;;;;16.26;67.24;99252.03;4232633;28;20260;-68
2023/07/28 02:44:38;;;;;;;6.23;3.53;;;;;;;16.37;67.42;99263.38;4233144;28;20320;-67
2023/07/28 02:47:05;;;;;;;6.37;3.50;;;;;;;16.29;67.83;99261.69;4231737;28;20242;-67
2023/07/28 02:49:32;;;;;;;5.43;3.10;;;;;;;16.20;68.54;99260.25;4225127;28;20525;-69
2023/07/28 02:51:59;;;;;;;6.00;3.67;;;;;;;16.00;70.28;99263.84;4235632;28;20231;-68
2023/07/28 02:54:26;;;;;;;13.93;3.27;;;;;;;16.06;69.25;99253.97;4237027;28;20441;-68
2023/07/28 02:56:53;;;;;;;8.10;3.93;;;;;;;15.87;70.15;99244.75;4232337;28;20235;-67
2023/07/28 02:59:21;;;;;;;8.57;3.50;;;;;;;15.88;70.09;99241.81;4223395;28;22927;-69
2023/07/28 03:01:47;;;;;;;7.03;3.57;;;;;;;15.85;72.28;99250.44;4232006;28;21119;-69
2023/07/28 03:04:14;;;;;;;8.10;4.03;;;;;;;16.02;70.54;99249.97;4224152;28;20254;-70
2023/07/28 03:06:40;;;;;;;5.50;3.73;;;;;;;15.78;71.25;99247.69;4230129;28;22224;-67
2023/07/28 03:09:07;;;;;;;6.07;3.30;;;;;;;16.00;70.32;99240.13;4236618;28;20231;-67
2023/07/28 03:11:33;;;;;;;6.77;3.70;;;;;;;15.87;70.94;99244.75;4249958;28;23580;-71
2023/07/28 03:14:00;;;;;;;5.83;3.50;;;;;;;15.90;71.11;99244.34;4238604;28;20288;-70
2023/07/28 03:16:27;;;;;;;7.77;3.60;;;;;;;16.03;70.41;99238.00;4236588;28;20237;-69
2023/07/28 03:18:54;;;;;;;5.37;3.67;;;;;;;15.96;70.59;99227.94;4221778;28;20232;-67
2023/07/28 03:21:20;;;;;;;5.67;3.87;;;;;;;15.89;70.81;99227.13;4242515;28;21414;-67
2023/07/28 03:23:47;;;;;;;6.10;3.90;;;;;;;15.84;70.91;99225.03;4239653;28;20676;-68
2023/07/28 03:26:13;;;;;;;8.33;3.90;;;;;;;15.96;70.44;99225.22;4233008;28;20702;-68
2023/07/28 03:28:40;;;;;;;8.23;3.90;;;;;;;16.11;69.62;99222.25;4231024;28;20291;-70
2023/07/28 03:31:06;;;;;;;6.67;3.83;;;;;;;15.97;70.03;99223.34;4220194;28;20239;-67
2023/07/28 03:33:33;;;;;;;7.77;3.77;;;;;;;15.96;70.15;99216.22;4223346;28;20249;-67
2023/07/28 03:35:59;;;;;;;11.23;3.77;;;;;;;15.97;70.13;99212.44;4228940;28;20699;-70
2023/07/28 03:38:26;;;;;;;7.20;3.43;;;;;;;16.03;69.22;99208.00;4237063;28;20289;-67
2023/07/28 03:40:53;;;;;;;5.97;3.87;;;;;;;16.13;69.13;99216.59;4221414;28;20239;-66
2023/07/28 03:43:20;;;;;;;7.20;3.60;;;;;;;16.07;69.44;99214.72;4223501;28;25436;-68
2023/07/28 03:45:47;;;;;;;7.80;4.00;;;;;;;16.06;69.67;99210.31;4288638;28;20249;-69
2023/07/28 03:48:14;;;;;;;7.77;3.80;;;;;;;15.98;69.95;99212.22;4264754;28;20234;-69
2023/07/28 03:50:40;;;;;;;6.43;3.20;;;;;;;16.06;69.84;99215.75;4264061;28;20574;-67
2023/07/28 03:53:07;;;;;;;8.97;3.60;;;;;;;16.14;69.53;99226.44;4256347;28;20563;-70
2023/07/28 03:55:35;;;;;;;8.23;3.83;;;;;;;16.13;69.44;99217.41;4261158;28;20290;-68
2023/07/28 03:58:02;;;;;;;5.00;3.67;;;;;;;16.15;69.53;99217.22;4237689;28;20236;-69
2023/07/28 04:00:29;;;;;;;9.73;3.70;;;;;;;16.07;69.54;99209.25;4248167;28;20428;-69
2023/07/28 04:02:56;;;;;;;9.20;3.90;;;;;;;16.25;69.24;99211.31;4246205;28;26857;-70
2023/07/28 04:05:23;;;;;;;6.90;3.27;;;;;;;16.17;68.78;99204.16;4229588;28;25990;-68
2023/07/28 04:07:50;;;;;;;6.27;3.60;;;;;;;16.25;69.14;99209.41;4235539;28;20349;-69
2023/07/28 04:10:16;;;;;;;9.80;3.93;;;;;;;16.21;69.36;99207.31;4238329;28;20379;-71
2023/07/28 04:12:43;;;;;;;7.00;3.80;;;;;;;16.21;69.43;99201.84;4229611;28;20239;-68
2023/07/28 04:15:09;;;;;;;8.37;3.63;;;;;;;16.24;69.31;99207.72;4226752;28;20248;-68
2023/07/28 04:17:36;;;;;;;9.70;4.50;;;;;;;16.22;69.64;99212.56;4252963;28;20244;-68
2023/07/28 04:20:03;;;;;;;6.97;3.50;;;;;;;16.42;69.07;99211.66;4232461;28;22161;-69
2023/07/28 04:22:30;;;;;;;11.13;4.10;;;;;;;16.39;69.11;99212.09;4227676;28;21483;-68
2023/07/28 04:24:57;;;;;;;6.80;4.00;;;;;;;16.25;69.17;99209.41;4222693;28;20251;-68
2023/07/28 04:27:24;;;;;;;8.57;3.77;;;;;;;16.33;69.48;99205.59;4260615;28;20228;-67
2023/07/28 04:29:51;;;;;;;6.27;3.93;;;;;;;16.47;68.68;99207.22;4213000;28;20319;-66
2023/07/28 04:32:18;;;;;;;8.67;4.00;;;;;;;16.38;69.23;99203.06;4226711;28;20223;-69
2023/07/28 04:34:44;;;;;;;8.80;3.80;;;;;;;16.45;68.95;99194.84;4219806;28;21469;-70
2023/07/28 04:37:11;;;;;;;9.57;3.97;;;;;;;16.45;68.84;99195.69;4231764;28;20226;-68
2023/07/28 04:39:37;;;;;;;10.57;4.67;;;;;;;16.43;69.37;99197.78;4219725;28;21666;-67
2023/07/28 04:42:04;;;;;;;9.50;3.90;;;;;;;16.47;68.96;99190.84;4223886;28;22312;-72
2023/07/28 04:44:31;;;;;;;9.53;4.47;;;;;;;16.42;68.96;99187.06;4267766;28;22154;-68
2023/07/28 04:46:57;;;;;;;9.03;3.97;;;;;;;16.58;68.66;99178.38;4242796;28;20603;-70
2023/07/28 04:49:25;;;;;;;6.67;3.97;;;;;;;16.53;68.75;99178.22;4225282;28;20234;-67
2023/07/28 04:51:51;;;;;;;6.67;3.93;;;;;;;16.53;69.09;99172.75;4230961;28;20601;-67
2023/07/28 04:54:18;;;;;;;7.67;3.73;;;;;;;16.62;68.71;99171.41;4211523;28;20254;-67
2023/07/28 04:56:45;;;;;;;6.73;3.60;;;;;;;16.68;68.65;99161.53;4227678;28;20358;-69
2023/07/28 04:59:12;;;;;;;6.67;3.93;;;;;;;16.77;68.29;99168.41;4228691;28;20228;-69
2023/07/28 05:01:39;;;;;;;10.27;4.27;;;;;;;16.80;68.39;99170.69;4250247;28;22049;-67
2023/07/28 05:04:06;;;;;;;10.80;3.67;;;;;;;16.94;67.89;99173.38;4229684;28;21266;-67
2023/07/28 05:06:32;;;;;;;12.53;4.07;;;;;;;16.89;67.91;99168.56;4219562;28;20323;-66
2023/07/28 05:08:59;;;;;;;7.77;4.10;;;;;;;16.95;67.26;99172.34;4228723;28;20240;-70
2023/07/28 05:11:26;;;;;;;16.30;4.07;;;;;;;17.02;67.14;99158.59;4240974;28;20236;-68
2023/07/28 05:13:52;;;;;;;6.83;3.63;;;;;;;17.05;66.85;99159.00;4236329;28;20235;-68
2023/07/28 05:16:19;;;;;;;8.93;3.33;;;;;;;17.15;66.22;99157.66;4233893;28;20231;-67
2023/07/28 05:18:46;;;;;;;8.60;3.50;;;;;;;17.20;65.86;99158.69;4239520;28;20282;-70
2023/07/28 05:21:12;;;;;;;11.90;4.83;;;;;;;17.07;66.57;99161.53;4246648;28;20326;-69
2023/07/28 05:23:39;;;;;;;9.30;4.43;;;;;;;17.22;65.79;99158.47;4206927;28;20242;-66
2023/07/28 05:26:05;;;;;;;8.43;3.60;;;;;;;17.27;65.96;99156.75;4234381;28;21853;-69
2023/07/28 05:28:35;;;;;;;8.37;3.50;;;;;;;17.30;65.77;99166.38;4218760;28;20343;-66
2023/07/28 05:31:05;;;;;;;7.30;3.53;;;;;;;17.46;65.51;99164.97;4227426;28;20524;-67
2023/07/28 05:33:32;;;;;;;9.20;3.50;;;;;;;17.45;65.46;99157.81;4225692;28;23636;-65
2023/07/28 05:36:03;;;;;;;8.77;3.47;;;;;;;17.58;65.23;99167.81;4233703;28;20239;-69
2023/07/28 05:38:32;;;;;;;15.63;3.67;;;;;;;17.49;64.90;99169.16;4220481;28;20256;-71
2023/07/28 05:41:03;;;;;;;6.47;3.87;;;;;;;17.39;64.87;99162.31;4228822;28;20254;-71
2023/07/28 05:43:31;;;;;;;9.23;3.87;;;;;;;17.36;65.20;99161.94;4220857;28;20238;-71
2023/07/28 05:46:03;;;;;;;9.60;3.90;;;;;;;17.40;65.01;99161.25;4245568;28;22221;-71
2023/07/28 05:48:29;;;;;;;9.27;3.73;;;;;;;17.50;64.89;99160.75;4239365;28;20736;-70
2023/07/28 05:50:56;;;;;;;12.60;4.03;;;;;;;17.48;64.75;99151.09;4276420;28;20234;-73
2023/07/28 05:53:23;;;;;;;10.57;3.97;;;;;;;17.49;64.07;99156.34;4243467;28;21923;-72
2023/07/28 05:55:49;;;;;;;13.20;4.63;;;;;;;17.43;64.58;99168.19;4228350;28;20238;-71
2023/07/28 05:58:16;;;;;;;13.60;4.07;;;;;;;17.38;64.55;99166.13;4236502;28;20325;-70
2023/07/28 06:00:42;;;;;;;12.93;4.00;;;;;;;17.40;64.71;99165.88;4223963;28;20244;-71
2023/07/28 06:03:10;;;;;;;12.77;3.90;;;;;;;17.45;64.55;99162.47;4226646;28;20320;-71
2023/07/28 06:05:39;;;;;;;15.50;4.00;;;;;;;17.65;63.70;99163.13;4239893;28;20579;-71
2023/07/28 06:08:06;;;;;;;10.83;3.60;;;;;;;17.86;62.90;99166.53;4239490;28;20368;-70
2023/07/28 06:10:33;;;;;;;13.37;3.07;;;;;;;17.87;62.94;99174.50;4231307;28;20239;-70
2023/07/28 06:12:59;;;;;;;7.47;3.20;;;;;;;17.71;63.05;99175.06;4244608;28;21440;-70
2023/07/28 06:15:26;;;;;;;8.87;3.40;;;;;;;17.68;63.17;99173.63;4227334;28;20235;-70
2023/07/28 06:17:53;;;;;;;9.03;3.60;;;;;;;17.63;63.38;99164.41;4222149;28;20237;-71
2023/07/28 06:20:19;;;;;;;12.60;3.07;;;;;;;17.75;63.12;99168.06;4241999;28;20232;-70
2023/07/28 06:22:46;;;;;;;12.30;3.67;;;;;;;17.80;63.13;99167.41;4231649;28;20329;-71
2023/07/28 06:25:12;;;;;;;12.83;3.97;;;;;;;17.89;62.87;99161.44;4236818;28;20310;-71
2023/07/28 06:27:39;;;;;;;10.57;3.63;;;;;;;17.77;63.34;99160.47;4234037;28;20238;-72
2023/07/28 06:30:07;;;;;;;11.13;3.50;;;;;;;18.03;62.91;99166.78;4235200;28;20250;-70
2023/07/28 06:32:33;;;;;;;13.57;3.80;;;;;;;18.01;63.05;99160.69;4238793;28;20240;-71
2023/07/28 06:35:00;;;;;;;9.27;3.50;;;;;;;17.87;63.28;99169.03;4223750;28;20293;-70
2023/07/28 06:37:27;;;;;;;8.33;3.80;;;;;;;17.95;62.98;99172.53;4223128;28;20235;-70
2023/07/28 06:39:55;;;;;;;10.20;3.40;;;;;;;18.11;62.70;99173.84;4227063;28;21178;-69
2023/07/28 06:42:23;;;;;;;14.33;3.90;;;;;;;18.02;63.09;99156.88;4240385;28;20451;-69
2023/07/28 06:44:51;;;;;;;11.07;3.80;;;;;;;18.03;62.98;99153.91;4221426;28;20308;-72
2023/07/28 06:47:18;;;;;;;18.90;3.57;;;;;;;18.23;63.09;99152.00;4212078;28;20354;-69
2023/07/28 06:49:45;;;;;;;9.83;3.40;;;;;;;18.11;63.37;99152.78;4227829;28;21597;-68
2023/07/28 06:52:11;;;;;;;11.10;3.60;;;;;;;18.02;63.71;99152.25;4274370;28;23459;-69
2023/07/28 06:54:39;;;;;;;6.43;3.67;;;;;;;18.01;63.78;99152.47;4245743;28;20356;-68
2023/07/28 06:57:06;;;;;;;13.23;3.67;;;;;;;17.82;64.39;99154.34;4220732;28;20226;-70
2023/07/28 06:59:33;;;;;;;13.23;3.67;;;;;;;17.86;64.60;99156.41;4228845;28;20677;-69
2023/07/28 07:02:00;;;;;;;10.77;3.37;;;;;;;17.91;64.90;99158.44;4222279;28;22435;-68
2023/07/28 07:04:28;;;;;;;7.80;3.10;;;;;;;17.66;67.14;99162.06;4227949;28;21586;-65
2023/07/28 07:06:54;;;;;;;9.40;3.27;;;;;;;17.56;68.34;99172.72;4228189;28;20605;-69
2023/07/28 07:09:21;;;;;;;15.20;3.90;;;;;;;17.11;71.68;99169.03;4219270;28;20442;-66
2023/07/28 07:11:48;;;;;;;7.93;3.50;;;;;;;17.12;72.62;99175.38;4244499;28;20238;-69
2023/07/28 07:14:14;;;;;;;6.47;3.77;;;;;;;17.11;73.87;99188.19;4236484;28;22288;-72
2023/07/28 07:16:41;;;;;;;8.40;4.07;;;;;;;16.81;75.73;99179.75;4227648;28;23214;-70
2023/07/28 07:19:11;;;;;;;9.77;4.53;;;;;;;16.67;77.22;99189.06;4239301;28;20919;-68
2023/07/28 07:21:37;;;;;;;10.33;3.83;;;;;;;16.52;78.88;99192.94;4237774;28;20294;-71
2023/07/28 07:24:04;;;;;;;8.20;3.80;;;;;;;16.34;79.99;99184.59;4223176;28;21917;-68
2023/07/28 07:26:31;;;;;;;13.07;4.37;;;;;;;16.31;80.55;99178.50;4227396;28;20234;-70
2023/07/28 07:28:59;;;;;;;9.90;4.40;;;;;;;15.99;81.70;99172.09;4223856;28;20676;-73
2023/07/28 07:31:26;;;;;;;7.57;3.87;;;;;;;15.90;83.07;99178.84;4252460;28;20379;-70
2023/07/28 07:33:53;;;;;;;15.03;4.93;;;;;;;15.88;83.95;99168.13;4227969;28;20231;-70
2023/07/28 07:36:19;;;;;;;10.50;4.13;;;;;;;16.02;82.86;99166.22;4254311;28;20277;-73
2023/07/28 07:38:48;;;;;;;11.70;4.67;;;;;;;15.99;83.50;99166.63;4229864;28;20291;-71
2023/07/28 07:41:21;;;;;;;11.23;4.53;;;;;;;15.87;83.98;99165.63;4232401;28;20262;-69
2023/07/28 07:43:49;;;;;;;7.83;4.50;;;;;;;15.90;84.24;99170.66;4239986;28;20235;-69
2023/07/28 07:46:16;;;;;;;13.47;5.10;;;;;;;15.89;84.84;99167.09;4262135;28;23039;-69
2023/07/28 07:48:43;;;;;;;9.63;5.03;;;;;;;15.98;85.00;99163.06;4255960;28;20665;-68
2023/07/28 07:51:10;;;;;;;12.63;4.50;;;;;;;16.06;84.87;99174.81;4250957;28;21146;-70
2023/07/28 07:53:37;;;;;;;9.97;4.63;;;;;;;15.95;84.98;99162.66;4227983;28;20243;-69
2023/07/28 07:56:04;;;;;;;7.90;4.47;;;;;;;15.95;85.18;99163.50;4228464;28;20239;-68
2023/07/28 07:58:31;;;;;;;16.70;5.27;;;;;;;15.91;85.94;99159.53;4236381;28;20308;-69
2023/07/28 08:00:58;;;;;;;9.20;4.70;;;;;;;15.95;85.65;99168.13;4250670;28;21579;-69
2023/07/28 08:03:26;;;;;;;11.73;4.63;;;;;;;15.91;86.16;99180.50;4230673;28;21751;-69
2023/07/28 08:05:53;;;;;;;8.10;4.83;;;;;;;16.02;85.76;99177.13;4249338;28;20234;-69
2023/07/28 08:08:20;;;;;;;12.27;4.87;;;;;;;16.14;85.70;99171.84;4221661;28;20811;-68
2023/07/28 08:10:47;;;;;;;15.10;5.67;;;;;;;16.03;86.68;99169.78;4222697;28;20358;-69
2023/07/28 08:13:14;;;;;;;10.23;4.93;;;;;;;16.10;85.43;99174.19;4221641;28;20307;-69
2023/07/28 08:15:43;;;;;;;10.73;5.20;;;;;;;16.10;86.36;99176.91;4235275;28;20245;-70
2023/07/28 08:18:11;;;;;;;12.23;5.00;;;;;;;16.07;86.23;99162.84;4242180;28;20277;-67
2023/07/28 08:20:38;;;;;;;12.70;4.87;;;;;;;16.05;86.22;99167.69;4242805;28;22962;-69
2023/07/28 08:23:04;;;;;;;10.73;4.97;;;;;;;16.10;86.94;99162.41;4244394;28;20338;-67
2023/07/28 08:25:31;;;;;;;14.67;5.43;;;;;;;16.19;87.70;99166.56;4234891;28;20273;-70
2023/07/28 08:28:00;;;;;;;10.13;5.27;;;;;;;16.29;88.01;99163.38;4213842;28;21130;-70
2023/07/28 08:30:27;;;;;;;9.90;5.00;;;;;;;16.50;86.96;99155.97;4241274;28;21098;-68
2023/07/28 08:32:54;;;;;;;6.60;4.17;;;;;;;16.76;84.60;99154.97;4280177;28;20692;-68
2023/07/28 08:35:20;;;;;;;9.57;4.63;;;;;;;16.85;84.25;99158.28;4231862;28;21645;-67
2023/07/28 08:37:47;;;;;;;8.93;4.80;;;;;;;16.93;84.52;99164.34;4252368;28;20231;-71
2023/07/28 08:40:14;;;;;;;11.30;4.87;;;;;;;17.10;84.29;99166.53;4224384;28;20621;-68
2023/07/28 08:42:41;;;;;;;9.83;5.10;;;;;;;17.13;83.20;99166.09;4231649;28;20357;-70
2023/07/28 08:45:08;;;;;;;9.20;4.83;;;;;;;17.09;84.38;99157.50;4228609;28;20243;-69
2023/07/28 08:47:36;;;;;;;10.80;4.53;;;;;;;16.92;83.75;99167.25;4231052;28;21465;-74
2023/07/28 08:50:05;;;;;;;9.40;5.40;;;;;;;16.73;84.64;99158.13;4230464;28;20224;-68
2023/07/28 08:52:32;;;;;;;9.03;5.33;;;;;;;16.67;85.58;99154.38;4230847;28;20235;-70
2023/07/28 08:54:59;;;;;;;10.83;5.90;;;;;;;16.67;85.81;99153.53;4239792;28;20723;-69
2023/07/28 08:57:27;;;;;;;12.90;5.07;;;;;;;16.63;86.02;99144.94;4221927;28;20238;-70
2023/07/28 08:59:54;;;;;;;9.57;4.73;;;;;;;16.71;85.72;99135.66;4208629;28;20415;-69
2023/07/28 09:02:21;;;;;;;11.37;5.07;;;;;;;16.78;85.92;99144.63;4243987;28;20463;-70
2023/07/28 09:04:49;;;;;;;13.57;5.63;;;;;;;16.99;84.35;99146.22;4237362;28;20659;-67
2023/07/28 09:07:16;;;;;;;15.10;5.83;;;;;;;17.03;84.87;99136.50;4236936;28;21756;-77
2023/07/28 09:09:43;;;;;;;11.67;4.97;;;;;;;16.92;84.24;99135.31;4226833;28;20610;-69
2023/07/28 09:12:10;;;;;;;12.60;5.23;;;;;;;16.85;85.44;99144.59;4226433;28;20239;-70
2023/07/28 09:14:37;;;;;;;9.67;5.37;;;;;;;16.94;85.14;99148.78;4219734;28;20251;-68
2023/07/28 09:17:11;;;;;;;11.60;5.33;;;;;;;16.84;85.73;99146.50;4233192;28;20259;-71
2023/07/28 09:19:53;;;;;;;10.00;5.23;;;;;;;16.91;85.41;99143.72;4248310;28;20223;-46
2023/07/28 09:22:20;;;;;;;8.97;5.20;;;;;;;17.02;85.36;99148.53;4234710;28;22266;-50
2023/07/28 09:24:47;;;;;;;9.50;5.23;;;;;;;17.03;85.03;99152.09;4255291;28;20664;-53
2023/07/28 09:27:28;;;;;;;13.27;5.10;;;;;;;17.17;84.42;99139.97;4233997;28;21744;-51
2023/07/28 09:29:56;;;;;;;10.07;5.83;;;;;;;17.31;84.54;99131.66;4265385;28;21088;-52
2023/07/28 09:32:32;;;;;;;10.03;5.80;;;;;;;17.36;84.53;99135.41;4250308;28;20235;-49
2023/07/28 09:35:05;;;;;;;11.77;5.50;;;;;;;17.50;84.03;99141.59;4241165;28;21730;-50
2023/07/28 09:37:32;;;;;;;8.40;5.47;;;;;;;17.70;82.96;99130.47;4236834;28;20301;-70
2023/07/28 09:40:00;;;;;;;12.63;5.37;;;;;;;17.72;82.63;99128.31;4241499;28;21233;-69
2023/07/28 09:42:28;;;;;;;9.87;5.60;;;;;;;17.70;83.52;99127.72;4237923;28;20238;-69
2023/07/28 09:44:54;;;;;;;9.43;5.47;;;;;;;17.88;82.10;99117.84;4241820;28;23510;-70
2023/07/28 09:47:21;;;;;;;9.33;5.37;;;;;;;17.78;82.47;99121.09;4234787;28;21204;-66
2023/07/28 09:49:48;;;;;;;7.00;4.87;;;;;;;17.97;81.79;99115.69;4235142;28;20230;-70
2023/07/28 09:52:17;;;;;;;12.43;4.97;;;;;;;17.93;81.85;99125.38;4245111;28;24237;-72
2023/07/28 09:54:45;;;;;;;9.90;5.30;;;;;;;17.84;81.89;99122.09;4222556;28;20248;-70
2023/07/28 09:57:13;;;;;;;10.53;5.13;;;;;;;17.83;82.17;99121.25;4222190;28;20726;-70
2023/07/28 09:59:41;;;;;;;10.33;4.97;;;;;;;17.90;81.55;99108.31;4234493;28;22481;-70
2023/07/28 10:02:09;;;;;;;8.83;4.80;;;;;;;17.94;82.01;99114.19;4210920;28;20962;-70
2023/07/28 10:04:36;;;;;;;13.23;5.07;;;;;;;18.02;81.71;99113.09;4210552;28;20235;-69
2023/07/28 10:07:05;;;;;;;11.07;5.00;;;;;;;18.08;81.61;99120.38;4222895;28;20231;-70
2023/07/28 10:09:33;;;;;;;10.87;5.10;;;;;;;18.03;81.21;99112.84;4241252;28;20635;-69
2023/07/28 10:12:01;;;;;;;8.60;4.90;;;;;;;18.05;80.64;99115.38;4222240;28;20226;-69
2023/07/28 10:14:37;;;;;;;10.93;4.60;;;;;;;18.01;80.85;99109.50;4228982;28;20404;-70
2023/07/28 10:17:05;;;;;;;13.80;5.00;;;;;;;18.16;80.35;99109.13;4245243;28;23491;-69
2023/07/28 10:19:36;;;;;;;6.37;4.37;;;;;;;18.23;79.35;99109.03;4212368;28;22060;-68
2023/07/28 10:22:07;;;;;;;8.17;4.80;;;;;;;18.19;80.00;99111.41;4241305;28;20240;-68
2023/07/28 10:24:53;;;;;;;11.57;4.80;;;;;;;18.26;79.87;99108.56;4222133;28;21418;-70
2023/07/28 10:27:39;;;;;;;10.33;4.63;;;;;;;18.15;79.76;99110.16;4247160;28;20223;-69
2023/07/28 10:30:12;;;;;;;8.07;4.30;;;;;;;18.17;79.81;99105.31;4226815;28;20238;-70
2023/07/28 10:32:40;;;;;;;13.03;5.17;;;;;;;18.26;79.39;99107.75;4251293;28;20235;-69
2023/07/28 10:35:14;;;;;;;9.73;4.53;;;;;;;18.29;79.73;99099.03;4224053;28;20239;-69
2023/07/28 10:37:45;;;;;;;11.50;4.83;;;;;;;18.33;79.02;99103.81;4234168;28;20231;-68
2023/07/28 10:40:22;;;;;;;9.73;4.67;;;;;;;18.30;79.34;99097.97;4227881;28;21763;-69
2023/07/28 10:42:49;;;;;;;9.30;5.40;;;;;;;18.41;79.16;99096.34;4237655;28;21746;-68
2023/07/28 10:45:16;;;;;;;10.53;4.93;;;;;;;18.31;79.77;99089.53;4239216;28;20737;-70
2023/07/28 10:47:43;;;;;;;14.63;4.87;;;;;;;18.45;78.97;99097.56;4226953;28;20231;-71
2023/07/28 10:50:10;;;;;;;9.00;4.87;;;;;;;18.61;78.79;99087.84;4234477;28;20330;-69
2023/07/28 10:52:41;;;;;;;10.20;4.97;;;;;;;18.77;78.04;99081.72;4237551;28;21912;-67
2023/07/28 10:55:14;;;;;;;10.53;5.40;;;;;;;18.92;77.46;99086.75;4261335;28;22888;-71
2023/07/28 10:57:42;;;;;;;7.80;4.70;;;;;;;19.05;76.46;99085.72;4243746;28;20276;-69
2023/07/28 11:00:11;;;;;;;9.73;4.17;;;;;;;19.09;76.99;99086.06;4236163;28;25530;-69
2023/07/28 11:02:42;;;;;;;10.00;4.07;;;;;;;19.08;76.70;99090.75;4233562;28;20478;-70
2023/07/28 11:05:12;;;;;;;13.53;4.03;;;;;;;18.98;76.78;99087.72;4241908;28;20257;-69
2023/07/28 11:07:43;;;;;;;14.43;5.10;;;;;;;19.08;76.67;99089.88;4250498;28;21482;-69
2023/07/28 11:10:14;;;;;;;15.00;4.43;;;;;;;19.12;76.31;99097.41;4234984;28;21642;-71
2023/07/28 11:12:46;;;;;;;10.27;4.70;;;;;;;19.18;76.23;99092.88;4212355;28;20591;-69
2023/07/28 11:15:14;;;;;;;6.50;3.70;;;;;;;19.30;75.48;99082.75;4242031;28;20246;-71
2023/07/28 11:17:44;;;;;;;8.47;4.03;;;;;;;19.45;75.13;99087.78;4245196;28;20239;-71
2023/07/28 11:20:18;;;;;;;8.13;4.93;;;;;;;19.67;73.94;99080.84;4248105;28;20250;-71
2023/07/28 11:22:46;;;;;;;9.10;4.17;;;;;;;19.78;73.83;99079.97;4235056;28;20244;-71
2023/07/28 11:25:13;;;;;;;7.17;4.00;;;;;;;19.81;73.82;99074.00;4251661;28;20239;-71
2023/07/28 11:27:40;;;;;;;9.37;4.43;;;;;;;20.21;73.05;99081.44;4246254;28;20243;-63
2023/07/28 11:30:10;;;;;;;8.93;4.40;;;;;;;20.50;71.57;99080.63;4234038;28;20294;-64
2023/07/28 11:32:37;;;;;;;9.10;4.03;;;;;;;20.92;70.43;99069.31;4254569;28;20242;-63
2023/07/28 11:35:05;;;;;;;12.93;3.97;;;;;;;21.05;69.52;99062.63;4251943;28;20234;-63